Time;durP1;ratioP1;P1;durP2;ratioP2;P2;SDS_P1;SDS_P2;PMS_P1;PMS_P2;Temp;Humidity;BMP_temperature;BMP_pressure;BME280_temperature;BME280_humidity;BME280_pressure;Samples;Min_cycle;Max_cycle;Signal;HPM_P1;HPM_P2
2022/11/09 00:01:23;;;;;;;5.27;2.93;;;11.90;99.90;;;;;;5078846;28;20484;-89
2022/11/09 00:03:54;;;;;;;6.70;2.70;;;12.00;99.90;;;;;;5078767;28;20553;-89
2022/11/09 00:06:22;;;;;;;3.00;2.80;;;12.10;99.90;;;;;;5062432;28;20424;-89
2022/11/09 00:08:52;;;;;;;3.33;2.97;;;;;;;;;;5058341;28;20442;-89
2022/11/09 00:11:19;;;;;;;4.90;3.07;;;12.10;99.90;;;;;;5058603;28;20460;-90
2022/11/09 00:13:47;;;;;;;4.33;2.87;;;11.70;99.90;;;;;;5057366;28;20449;-89
2022/11/09 00:16:17;;;;;;;3.03;2.73;;;12.10;99.90;;;;;;5057088;28;20465;-89
2022/11/09 00:18:46;;;;;;;2.93;2.73;;;12.10;99.90;;;;;;5057339;28;20492;-89
2022/11/09 00:21:14;;;;;;;3.50;3.20;;;12.10;99.90;;;;;;5057868;28;20474;-89
2022/11/09 00:23:42;;;;;;;6.57;3.53;;;;;;;;;;5058022;28;20818;-90
2022/11/09 00:26:11;;;;;;;5.33;3.10;;;12.10;99.90;;;;;;5058779;28;20453;-90
2022/11/09 00:28:39;;;;;;;3.50;2.80;;;12.10;99.90;;;;;;5059830;28;20439;-90
2022/11/09 00:31:08;;;;;;;7.37;2.63;;;12.10;99.90;;;;;;5067366;28;20500;-89
2022/11/09 00:33:35;;;;;;;3.17;2.87;;;11.90;1.00;;;;;;5064454;28;20453;-89
2022/11/09 00:36:06;;;;;;;6.70;3.60;;;12.10;99.90;;;;;;5071192;28;20420;-89
2022/11/09 00:38:33;;;;;;;4.43;4.03;;;12.10;99.90;;;;;;5060560;28;20501;-89
2022/11/09 00:41:02;;;;;;;3.27;2.83;;;12.00;99.90;;;;;;5059572;28;20488;-90
2022/11/09 00:43:29;;;;;;;4.20;3.90;;;;;;;;;;5060762;28;20548;-90
2022/11/09 00:45:56;;;;;;;6.70;4.07;;;;;;;;;;5061143;28;20513;-90
2022/11/09 00:48:23;;;;;;;4.33;3.97;;;;;;;;;;5059805;28;20445;-90
2022/11/09 00:50:50;;;;;;;4.00;3.37;;;12.00;99.90;;;;;;5057746;28;21005;-89
2022/11/09 00:53:18;;;;;;;4.10;3.70;;;11.60;1.00;;;;;;5058560;28;20442;-89
2022/11/09 00:55:54;;;;;;;3.20;2.90;;;12.00;99.90;;;;;;5060045;28;20423;-88
2022/11/09 00:58:22;;;;;;;3.60;3.30;;;;;;;;;;5061577;28;20473;-89
2022/11/09 01:00:49;;;;;;;3.70;3.27;;;12.00;99.90;;;;;;5065227;28;20436;-89
2022/11/09 01:03:16;;;;;;;3.43;3.13;;;11.80;1.00;;;;;;5079331;28;20437;-88
2022/11/09 01:05:42;;;;;;;3.83;3.43;;;12.00;99.90;;;;;;5066570;28;20476;-89
2022/11/09 01:08:09;;;;;;;3.57;2.57;;;12.00;99.90;;;;;;5062178;28;20442;-88
2022/11/09 01:10:39;;;;;;;3.60;3.30;;;11.60;1.00;;;;;;5062681;28;20424;-89
2022/11/09 01:13:05;;;;;;;4.53;2.93;;;11.90;99.90;;;;;;5061896;28;20424;-89
2022/11/09 01:15:33;;;;;;;3.63;3.03;;;11.90;99.90;;;;;;5064363;28;20449;-89
2022/11/09 01:18:00;;;;;;;11.40;3.23;;;11.80;99.90;;;;;;5063507;28;20852;-90
2022/11/09 01:20:27;;;;;;;2.93;2.63;;;11.80;1.00;;;;;;5061187;28;20452;-89
2022/11/09 01:22:54;;;;;;;5.77;5.37;;;12.00;99.90;;;;;;5060971;28;20449;-88
2022/11/09 01:25:21;;;;;;;3.17;2.97;;;12.00;99.90;;;;;;5059971;28;20442;-89
2022/11/09 01:27:48;;;;;;;3.90;2.87;;;12.00;99.90;;;;;;5060121;28;20460;-89
2022/11/09 01:30:14;;;;;;;3.27;2.97;;;12.00;99.90;;;;;;5059755;28;20788;-89
2022/11/09 01:32:42;;;;;;;3.40;3.10;;;12.00;99.90;;;;;;5059673;28;20469;-89
2022/11/09 01:35:09;;;;;;;2.83;2.63;;;11.90;99.90;;;;;;5059404;28;20800;-89
2022/11/09 01:37:36;;;;;;;4.00;3.60;;;11.90;99.90;;;;;;5060082;28;20446;-89
2022/11/09 01:40:03;;;;;;;3.43;3.13;;;11.80;99.90;;;;;;5060394;28;20485;-89
2022/11/09 01:42:29;;;;;;;3.53;3.23;;;11.80;99.90;;;;;;5060304;28;20527;-89
2022/11/09 01:45:30;;;;;;;5.20;3.20;;;11.80;99.90;;;;;;5060088;28;20519;-89
2022/11/09 01:48:03;;;;;;;4.40;3.23;;;11.80;99.90;;;;;;4978720;28;21012;-89
2022/11/09 01:50:36;;;;;;;3.73;3.43;;;11.60;99.90;;;;;;4978187;28;20432;-89
2022/11/09 01:53:06;;;;;;;3.90;2.70;;;11.80;99.90;;;;;;5022017;28;20441;-89
2022/11/09 01:55:33;;;;;;;3.50;3.20;;;11.90;99.90;;;;;;5060514;28;20446;-88
2022/11/09 01:58:05;;;;;;;3.30;3.10;;;11.80;99.90;;;;;;5059676;28;20510;-88
2022/11/09 02:00:36;;;;;;;3.03;2.83;;;11.50;1.00;;;;;;5060058;28;20796;-89
2022/11/09 02:03:07;;;;;;;3.10;2.80;;;11.80;99.90;;;;;;5071778;28;20428;-88
2022/11/09 02:05:37;;;;;;;3.20;3.00;;;11.90;1.00;;;;;;5081035;28;20424;-88
2022/11/09 02:08:08;;;;;;;4.77;2.67;;;11.70;99.90;;;;;;5080473;28;20426;-87
2022/11/09 02:10:43;;;;;;;3.40;3.07;;;11.60;99.90;;;;;;5075226;28;20520;-88
2022/11/09 02:13:12;;;;;;;3.37;3.07;;;11.60;99.90;;;;;;5063092;28;20425;-88
2022/11/09 02:15:39;;;;;;;3.30;3.00;;;11.60;99.90;;;;;;5061087;28;20548;-88
2022/11/09 02:18:08;;;;;;;3.50;2.90;;;11.60;1.00;;;;;;5060518;28;20457;-88
2022/11/09 02:20:47;;;;;;;4.63;3.27;;;11.40;1.00;;;;;;5059987;28;20450;-88
2022/11/09 02:23:14;;;;;;;2.10;1.90;;;11.30;1.00;;;;;;5059549;28;20864;-88
2022/11/09 02:25:41;;;;;;;3.83;2.80;;;11.40;1.00;;;;;;5058929;28;20960;-90
2022/11/09 02:28:08;;;;;;;3.20;2.90;;;11.40;99.90;;;;;;5058928;28;20449;-89
2022/11/09 02:30:36;;;;;;;3.93;3.17;;;11.20;1.00;;;;;;5059167;28;20446;-89
2022/11/09 02:33:03;;;;;;;3.80;3.43;;;11.30;99.90;;;;;;5059183;28;20453;-89
2022/11/09 02:35:30;;;;;;;2.93;2.63;;;11.40;1.00;;;;;;5058450;28;20447;-89
2022/11/09 02:37:58;;;;;;;4.03;2.83;;;11.30;99.90;;;;;;5059658;28;20445;-89
2022/11/09 02:40:31;;;;;;;4.23;3.20;;;11.30;99.90;;;;;;5059350;28;20486;-89
2022/11/09 02:42:58;;;;;;;2.80;2.60;;;11.10;1.00;;;;;;5060301;28;20430;-89
2022/11/09 02:45:34;;;;;;;3.73;3.33;;;11.00;1.00;;;;;;5059838;28;20453;-89
2022/11/09 02:48:01;;;;;;;3.60;2.77;;;;;;;;;;5061564;28;20790;-89
2022/11/09 02:50:28;;;;;;;2.73;2.53;;;11.10;1.00;;;;;;5060916;28;20416;-89
2022/11/09 02:52:55;;;;;;;4.30;3.00;;;11.40;1.00;;;;;;5058568;28;20450;-89
2022/11/09 02:55:23;;;;;;;3.43;2.50;;;11.00;99.90;;;;;;5058470;28;20452;-89
2022/11/09 02:57:50;;;;;;;3.20;2.83;;;11.00;99.90;;;;;;5059086;28;20425;-89
2022/11/09 03:00:17;;;;;;;4.10;3.47;;;11.00;99.90;;;;;;5058272;28;20492;-89
2022/11/09 03:02:44;;;;;;;2.90;2.60;;;10.90;99.90;;;;;;5058681;28;20470;-89
2022/11/09 03:05:10;;;;;;;4.00;2.90;;;10.90;99.90;;;;;;5074944;28;20412;-88
2022/11/09 03:07:37;;;;;;;3.63;3.33;;;10.80;99.90;;;;;;5071968;28;20494;-89
2022/11/09 03:10:04;;;;;;;4.80;3.73;;;10.80;1.00;;;;;;5060461;28;20519;-89
2022/11/09 03:12:32;;;;;;;3.30;3.00;;;10.80;99.90;;;;;;5058152;28;20466;-89
2022/11/09 03:15:01;;;;;;;3.43;2.67;;;10.80;99.90;;;;;;5058479;28;20449;-89
2022/11/09 03:17:28;;;;;;;3.27;3.00;;;10.80;99.90;;;;;;5058502;28;20456;-89
2022/11/09 03:19:55;;;;;;;2.70;2.50;;;10.80;1.00;;;;;;5058190;28;20485;-89
2022/11/09 03:22:22;;;;;;;3.20;3.00;;;10.90;99.90;;;;;;5074025;28;20444;-90
2022/11/09 03:24:48;;;;;;;5.47;2.90;;;11.00;99.90;;;;;;5069387;28;20457;-89
2022/11/09 03:27:15;;;;;;;3.37;2.77;;;10.50;99.90;;;;;;5069296;28;20516;-89
2022/11/09 03:29:43;;;;;;;2.67;2.47;;;11.60;99.90;;;;;;5061654;28;20452;-89
2022/11/09 03:32:10;;;;;;;3.93;3.03;;;10.80;1.00;;;;;;5058595;28;20881;-89
2022/11/09 03:34:37;;;;;;;2.83;2.60;;;10.90;1.00;;;;;;5057942;28;20507;-90
2022/11/09 03:37:04;;;;;;;2.57;2.37;;;11.00;99.90;;;;;;5057464;28;20450;-89
2022/11/09 03:39:31;;;;;;;4.83;3.17;;;11.00;99.90;;;;;;5056992;28;20482;-90
2022/11/09 03:41:57;;;;;;;2.80;2.40;;;11.00;99.90;;;;;;5056527;28;20462;-89
2022/11/09 03:44:24;;;;;;;4.80;3.03;;;11.00;99.90;;;;;;5056765;28;20449;-90
2022/11/09 03:46:53;;;;;;;4.70;2.40;;;11.00;99.90;;;;;;5057053;28;20446;-90
2022/11/09 03:49:22;;;;;;;3.23;2.93;;;11.00;99.90;;;;;;5057168;28;20540;-88
2022/11/09 03:51:49;;;;;;;3.40;2.93;;;10.90;1.00;;;;;;5057252;28;20595;-89
2022/11/09 03:54:16;;;;;;;2.70;2.50;;;11.20;99.90;;;;;;5056827;28;20445;-90
2022/11/09 03:56:43;;;;;;;3.70;3.40;;;11.20;99.90;;;;;;5061525;28;20424;-90
2022/11/09 03:59:10;;;;;;;5.00;3.10;;;11.60;1.00;;;;;;5061519;28;20488;-90
2022/11/09 04:01:38;;;;;;;4.00;3.27;;;11.60;1.00;;;;;;5062387;28;20571;-90
2022/11/09 04:04:07;;;;;;;3.37;3.07;;;11.30;99.90;;;;;;5062694;28;20450;-89
2022/11/09 04:06:34;;;;;;;3.40;3.00;;;;;;;;;;5064633;28;20503;-88
2022/11/09 04:09:01;;;;;;;2.87;2.67;;;;;;;;;;5081914;22;20482;-86
2022/11/09 04:11:28;;;;;;;3.70;3.00;;;11.40;99.90;;;;;;5069782;28;20497;-87
2022/11/09 04:13:54;;;;;;;3.10;2.23;;;11.40;1.00;;;;;;5065576;28;20945;-88
2022/11/09 04:16:21;;;;;;;3.00;2.80;;;11.40;99.90;;;;;;5064246;28;20833;-88
2022/11/09 04:18:48;;;;;;;2.97;2.77;;;11.00;99.90;;;;;;5060464;28;20461;-89
2022/11/09 04:21:16;;;;;;;5.50;2.50;;;11.40;1.00;;;;;;5058909;28;20485;-86
2022/11/09 04:23:43;;;;;;;3.47;3.00;;;11.40;1.00;;;;;;5058419;28;20942;-87
2022/11/09 04:26:10;;;;;;;3.17;2.57;;;11.40;1.00;;;;;;5057821;28;20460;-87
2022/11/09 04:28:36;;;;;;;3.50;3.20;;;11.40;1.00;;;;;;5057259;28;20508;-87
2022/11/09 04:31:03;;;;;;;3.10;2.90;;;11.40;1.00;;;;;;5055304;28;20446;-87
2022/11/09 04:33:30;;;;;;;3.10;2.80;;;11.30;67.50;;;;;;5055624;28;20449;-87
2022/11/09 04:36:02;;;;;;;5.63;3.00;;;11.00;99.90;;;;;;5057949;28;20420;-87
2022/11/09 04:38:30;;;;;;;3.27;2.97;;;11.20;1.00;;;;;;5058875;28;20498;-88
2022/11/09 04:41:00;;;;;;;3.67;3.30;;;11.40;99.90;;;;;;5058277;28;20497;-88
2022/11/09 04:43:27;;;;;;;3.70;3.50;;;11.20;99.90;;;;;;5056647;28;20449;-88
2022/11/09 04:45:54;;;;;;;4.00;3.23;;;11.20;99.90;;;;;;5057843;28;20822;-89
2022/11/09 04:48:20;;;;;;;3.97;3.10;;;11.20;1.00;;;;;;5056368;28;20490;-87
2022/11/09 04:50:48;;;;;;;3.40;3.10;;;;;;;;;;5070102;28;20485;-88
2022/11/09 04:53:15;;;;;;;3.47;3.17;;;11.20;99.90;;;;;;5061241;28;20464;-88
2022/11/09 04:55:44;;;;;;;4.23;3.83;;;11.10;1.00;;;;;;5056996;28;20523;-88
2022/11/09 04:58:11;;;;;;;3.20;3.00;;;11.20;1.00;;;;;;5056697;28;20526;-88
2022/11/09 05:00:41;;;;;;;3.03;2.83;;;11.10;99.90;;;;;;5056946;28;20421;-88
2022/11/09 05:03:08;;;;;;;3.80;3.20;;;11.10;28.10;;;;;;5057359;28;20457;-88
2022/11/09 05:05:37;;;;;;;3.67;2.90;;;10.90;99.90;;;;;;5056436;28;20439;-88
2022/11/09 05:08:05;;;;;;;6.57;3.67;;;10.70;99.90;;;;;;5057393;28;20452;-87
2022/11/09 05:10:32;;;;;;;4.10;3.70;;;11.00;99.90;;;;;;5056678;28;20463;-88
2022/11/09 05:13:02;;;;;;;4.17;3.77;;;10.90;99.90;;;;;;5056425;28;20958;-88
2022/11/09 05:16:16;;;;;;;5.17;3.37;;;11.00;99.90;;;;;;5056617;28;20454;-89
2022/11/09 05:34:58;;;;;;;3.73;3.43;;;;;;;;;;5066872;28;20393;-89
2022/11/09 05:40:49;;;;;;;3.90;3.60;;;11.20;99.90;;;;;;5055041;22;20502;-87
2022/11/09 05:43:16;;;;;;;5.10;3.23;;;11.20;99.90;;;;;;5077224;28;20874;-86
2022/11/09 05:45:44;;;;;;;6.47;4.20;;;11.10;99.90;;;;;;5061103;28;20441;-86
2022/11/09 05:48:12;;;;;;;4.43;3.90;;;11.10;99.90;;;;;;5060665;28;20445;-87
2022/11/09 05:50:40;;;;;;;4.40;4.00;;;11.00;99.90;;;;;;5062044;28;20482;-86
2022/11/09 05:53:07;;;;;;;3.63;3.33;;;;;;;;;;5067329;28;20438;-87
2022/11/09 05:55:34;;;;;;;4.23;3.80;;;11.10;99.90;;;;;;5079457;28;20517;-86
2022/11/09 05:58:01;;;;;;;4.00;3.60;;;11.10;99.90;;;;;;5080110;28;20425;-86
2022/11/09 06:00:28;;;;;;;5.83;5.30;;;10.90;99.90;;;;;;5080683;28;20492;-85
2022/11/09 06:03:02;;;;;;;4.53;4.13;;;11.10;99.90;;;;;;5080473;28;20436;-86
2022/11/09 06:05:28;;;;;;;4.70;4.23;;;10.80;99.90;;;;;;5080912;28;20171;-87
2022/11/09 06:07:55;;;;;;;4.43;4.00;;;11.10;99.90;;;;;;5081145;28;20437;-86
2022/11/09 06:10:22;;;;;;;4.10;3.03;;;11.20;99.90;;;;;;5079776;28;20496;-86
2022/11/09 06:12:50;;;;;;;4.23;3.83;;;11.10;99.90;;;;;;5078513;28;20416;-88
2022/11/09 06:15:17;;;;;;;4.90;4.50;;;11.20;99.90;;;;;;5079203;28;20524;-86
2022/11/09 06:17:43;;;;;;;3.90;3.60;;;11.10;99.90;;;;;;5079586;28;20456;-87
2022/11/09 06:20:12;;;;;;;3.67;3.37;;;11.20;99.90;;;;;;5064911;28;20492;-85
2022/11/09 06:22:38;;;;;;;5.80;4.00;;;11.20;99.90;;;;;;5059442;28;20826;-87
2022/11/09 06:25:06;;;;;;;4.00;3.70;;;11.30;99.90;;;;;;5058156;28;20953;-86
2022/11/09 06:27:32;;;;;;;7.33;4.23;;;11.30;99.90;;;;;;5050205;28;20450;-87
2022/11/09 06:29:59;;;;;;;3.97;3.67;;;11.60;99.90;;;;;;5059164;28;20463;-87
2022/11/09 06:32:26;;;;;;;4.70;3.80;;;11.40;99.90;;;;;;5074561;28;20453;-88
2022/11/09 06:34:52;;;;;;;4.90;4.10;;;11.40;99.90;;;;;;5064592;28;20439;-88
2022/11/09 06:37:20;;;;;;;5.73;4.87;;;11.40;99.90;;;;;;5080154;28;20436;-87
2022/11/09 06:39:47;;;;;;;4.17;3.87;;;11.50;99.90;;;;;;5079882;28;20524;-87
2022/11/09 06:42:14;;;;;;;12.60;3.90;;;11.50;99.90;;;;;;5077538;28;20392;-87
2022/11/09 06:44:41;;;;;;;4.93;3.60;;;;;;;;;;5061371;28;20455;-89
2022/11/09 06:47:08;;;;;;;5.27;4.07;;;11.50;99.90;;;;;;5059197;28;20458;-88
2022/11/09 06:49:34;;;;;;;5.37;4.97;;;11.50;99.90;;;;;;5059672;28;20915;-88
2022/11/09 06:52:01;;;;;;;4.47;3.70;;;11.50;99.90;;;;;;5057084;28;20456;-87
2022/11/09 06:54:29;;;;;;;5.43;3.90;;;11.50;99.90;;;;;;5058472;28;20458;-88
2022/11/09 06:56:56;;;;;;;5.63;3.93;;;11.60;99.90;;;;;;5058959;28;20951;-87
2022/11/09 06:59:23;;;;;;;4.70;4.27;;;11.60;99.90;;;;;;5058276;28;20984;-87
2022/11/09 07:01:49;;;;;;;6.83;4.90;;;11.60;99.90;;;;;;5061348;28;20468;-87
2022/11/09 07:04:16;;;;;;;3.93;3.63;;;11.60;99.90;;;;;;5065646;28;20444;-87
2022/11/09 07:06:43;;;;;;;3.77;3.47;;;11.60;99.90;;;;;;5076436;28;20524;-87
2022/11/09 07:09:10;;;;;;;4.57;3.53;;;11.70;99.90;;;;;;5073365;28;20448;-87
2022/11/09 07:11:39;;;;;;;4.13;3.73;;;11.60;99.90;;;;;;5069752;28;20485;-87
2022/11/09 07:14:05;;;;;;;4.33;4.03;;;11.60;99.90;;;;;;5067525;28;20454;-87
2022/11/09 07:16:33;;;;;;;6.70;4.53;;;11.60;99.90;;;;;;5066378;28;20434;-87
2022/11/09 07:18:59;;;;;;;6.90;4.27;;;11.30;99.90;;;;;;5060419;28;20451;-87
2022/11/09 07:21:26;;;;;;;6.00;4.73;;;11.50;99.90;;;;;;5065939;28;20437;-87
2022/11/09 07:23:53;;;;;;;7.30;4.07;;;11.50;99.90;;;;;;5070317;28;20480;-87
2022/11/09 07:26:20;;;;;;;4.73;3.83;;;11.50;99.90;;;;;;5064050;28;20450;-87
2022/11/09 07:28:48;;;;;;;5.43;4.80;;;11.40;99.90;;;;;;5069724;28;20449;-87
2022/11/09 07:31:14;;;;;;;8.30;4.60;;;11.60;99.90;;;;;;5078793;28;20473;-87
2022/11/09 07:33:42;;;;;;;5.73;5.10;;;;;;;;;;5079010;28;20412;-87
2022/11/09 07:36:09;;;;;;;6.90;4.40;;;11.30;99.90;;;;;;5077150;28;20442;-86
2022/11/09 07:38:36;;;;;;;4.57;4.10;;;11.60;99.90;;;;;;5064683;28;20473;-87
2022/11/09 07:41:02;;;;;;;5.80;4.00;;;11.30;99.90;;;;;;5065384;28;20469;-87
2022/11/09 07:43:30;;;;;;;6.30;5.13;;;11.10;99.90;;;;;;5071467;28;20385;-86
2022/11/09 07:45:58;;;;;;;5.63;4.20;;;11.20;99.90;;;;;;5071283;28;20624;-87
2022/11/09 07:48:24;;;;;;;5.20;4.60;;;11.20;99.90;;;;;;5066441;28;20788;-87
2022/11/09 07:50:51;;;;;;;5.30;4.80;;;11.20;99.90;;;;;;5061508;28;20489;-87
2022/11/09 07:53:18;;;;;;;7.00;5.73;;;11.30;99.90;;;;;;5064770;28;20449;-87
2022/11/09 07:55:46;;;;;;;6.00;5.50;;;11.30;99.90;;;;;;5060291;28;20456;-87
2022/11/09 08:01:57;;;;;;;5.40;4.90;;;;;;;;;;5054843;28;20468;-88
2022/11/09 08:04:25;;;;;;;8.20;4.77;;;;;;;;;;5065464;28;20425;-87
2022/11/09 08:06:52;;;;;;;8.33;7.37;;;11.40;99.90;;;;;;5067555;28;20511;-87
2022/11/09 08:09:19;;;;;;;6.30;5.70;;;11.40;99.90;;;;;;5063531;28;20873;-86
2022/11/09 08:11:46;;;;;;;6.17;5.40;;;11.20;99.90;;;;;;5068787;28;20515;-87
2022/11/09 08:14:13;;;;;;;5.07;4.60;;;11.30;99.90;;;;;;5067798;28;20420;-87
2022/11/09 08:16:39;;;;;;;5.00;4.60;;;11.30;99.90;;;;;;5065944;28;20443;-86
2022/11/09 08:19:08;;;;;;;7.33;5.23;;;11.60;99.90;;;;;;5076149;28;20479;-86
2022/11/09 08:21:35;;;;;;;6.20;5.60;;;11.40;99.90;;;;;;5078210;28;20467;-86
2022/11/09 08:24:04;;;;;;;7.27;4.83;;;11.40;99.90;;;;;;5078347;28;20437;-85
2022/11/09 08:26:31;;;;;;;6.80;5.10;;;11.50;99.90;;;;;;5078493;28;20414;-86
2022/11/09 08:28:58;;;;;;;5.47;4.97;;;11.50;99.90;;;;;;5070716;28;20446;-87
2022/11/09 08:31:25;;;;;;;6.90;4.70;;;11.50;99.90;;;;;;5059490;28;20508;-87
2022/11/09 08:33:52;;;;;;;6.00;4.90;;;11.50;99.90;;;;;;5059851;28;20504;-88
2022/11/09 08:36:20;;;;;;;5.20;4.80;;;11.40;99.90;;;;;;5062113;28;20953;-87
2022/11/09 08:38:47;;;;;;;7.00;6.03;;;11.50;99.90;;;;;;5062286;28;20432;-88
2022/11/09 08:41:14;;;;;;;8.03;5.90;;;11.50;99.90;;;;;;5060784;28;20481;-87
2022/11/09 08:43:41;;;;;;;6.30;4.97;;;11.50;99.90;;;;;;5060333;28;20881;-88
2022/11/09 08:46:07;;;;;;;7.07;5.20;;;11.50;99.90;;;;;;5060821;28;20454;-88
2022/11/09 08:48:34;;;;;;;6.03;4.87;;;11.70;99.90;;;;;;5061257;28;20457;-87
2022/11/09 08:51:01;;;;;;;4.73;4.33;;;11.70;99.90;;;;;;5061480;28;20993;-87
2022/11/09 08:53:30;;;;;;;5.20;4.80;;;11.40;99.90;;;;;;5061054;28;20420;-88
2022/11/09 08:55:59;;;;;;;8.23;4.47;;;11.80;99.90;;;;;;5060447;28;20814;-87
2022/11/09 08:58:26;;;;;;;5.40;4.90;;;12.10;99.90;;;;;;5061896;28;20420;-88
2022/11/09 09:00:53;;;;;;;5.23;4.83;;;;;;;;;;5060362;28;20850;-87
2022/11/09 09:03:20;;;;;;;8.17;5.43;;;11.80;99.90;;;;;;5057742;28;20431;-87
2022/11/09 09:05:53;;;;;;;8.63;5.17;;;11.90;99.90;;;;;;5060083;28;20484;-87
2022/11/09 09:08:21;;;;;;;6.00;5.10;;;11.70;99.90;;;;;;5060991;28;20426;-87
2022/11/09 09:10:49;;;;;;;7.97;4.73;;;11.90;99.90;;;;;;5073816;28;20496;-87
2022/11/09 09:13:18;;;;;;;5.13;4.43;;;12.00;99.90;;;;;;5061029;28;20445;-87
2022/11/09 09:15:44;;;;;;;5.77;5.10;;;12.10;99.90;;;;;;5061080;28;20452;-88
2022/11/09 09:18:11;;;;;;;7.47;5.93;;;12.10;99.90;;;;;;5062422;28;20453;-88
2022/11/09 09:20:38;;;;;;;6.20;4.97;;;;;;;;;;5061281;28;21018;-87
2022/11/09 09:23:05;;;;;;;10.77;6.20;;;12.20;99.90;;;;;;5062642;28;20450;-87
2022/11/09 09:25:32;;;;;;;6.13;4.80;;;12.20;99.90;;;;;;5066479;28;20400;-87
2022/11/09 09:28:00;;;;;;;5.10;4.60;;;11.90;99.90;;;;;;5077325;28;20471;-86
2022/11/09 09:30:27;;;;;;;7.70;4.90;;;12.10;99.90;;;;;;5066644;28;20465;-87
2022/11/09 09:32:58;;;;;;;8.10;5.23;;;12.20;99.90;;;;;;5062765;28;20523;-86
2022/11/09 09:35:24;;;;;;;5.53;4.97;;;12.20;99.90;;;;;;5061835;28;20795;-86
2022/11/09 09:37:51;;;;;;;5.73;5.00;;;12.50;99.90;;;;;;5063710;28;20449;-86
2022/11/09 09:40:25;;;;;;;5.77;5.20;;;12.30;99.90;;;;;;5066305;28;20477;-87
2022/11/09 09:42:54;;;;;;;6.47;5.70;;;12.30;99.90;;;;;;5063703;28;20437;-87
2022/11/09 09:45:25;;;;;;;8.30;5.67;;;12.40;99.90;;;;;;5060643;28;20452;-87
2022/11/09 09:48:03;;;;;;;6.73;5.47;;;12.50;99.90;;;;;;5060576;28;20434;-87
2022/11/09 09:50:37;;;;;;;6.50;5.90;;;12.40;99.90;;;;;;5061051;28;20475;-86
2022/11/09 09:53:14;;;;;;;6.20;5.30;;;12.30;99.90;;;;;;5061876;28;20865;-86
2022/11/09 09:55:44;;;;;;;6.97;6.17;;;12.40;99.90;;;;;;5060684;28;20423;-86
2022/11/09 09:58:13;;;;;;;9.70;6.60;;;12.30;99.90;;;;;;5060653;28;20446;-87
2022/11/09 10:03:24;;;;;;;8.07;5.17;;;;;;;;;;5045459;28;20876;-87
2022/11/09 10:06:00;;;;;;;6.90;5.13;;;12.30;99.90;;;;;;5059963;28;21050;-87
2022/11/09 10:08:39;;;;;;;5.73;5.23;;;12.40;99.90;;;;;;5060439;28;20457;-88
2022/11/09 10:11:20;;;;;;;8.57;5.50;;;12.40;99.90;;;;;;5060675;28;20489;-87
2022/11/09 10:14:27;;;;;;;7.80;5.00;;;12.40;99.90;;;;;;5063994;28;20493;-87
2022/11/09 10:17:07;;;;;;;6.50;5.10;;;12.40;99.90;;;;;;5064863;28;20460;-87
2022/11/09 10:22:39;;;;;;;6.17;4.90;;;12.60;99.90;;;;;;5072889;28;20422;-86
2022/11/09 10:25:12;;;;;;;7.47;5.17;;;12.60;99.90;;;;;;5063264;28;20416;-86
2022/11/09 10:27:44;;;;;;;7.67;5.00;;;12.60;99.90;;;;;;5066847;28;20595;-85
2022/11/09 10:30:15;;;;;;;4.33;4.00;;;12.60;99.90;;;;;;5061419;28;20836;-86
2022/11/09 10:32:46;;;;;;;5.93;4.40;;;12.60;99.90;;;;;;5059540;28;20996;-86
2022/11/09 10:35:20;;;;;;;6.43;4.67;;;12.50;99.90;;;;;;5060111;28;20445;-86
2022/11/09 10:37:48;;;;;;;6.83;4.50;;;13.10;99.90;;;;;;5059441;28;20430;-86
2022/11/09 10:40:21;;;;;;;4.90;4.10;;;14.90;99.90;;;;;;5058215;28;20985;-86
2022/11/09 10:42:50;;;;;;;7.77;4.87;;;12.60;99.90;;;;;;5059082;28;20453;-86
2022/11/09 10:45:25;;;;;;;6.13;5.53;;;12.70;99.90;;;;;;5059356;28;20420;-86
2022/11/09 10:47:56;;;;;;;5.23;4.80;;;12.80;99.90;;;;;;5062956;28;20525;-87
2022/11/09 10:50:28;;;;;;;6.90;5.00;;;12.80;99.90;;;;;;5059273;28;20465;-87
2022/11/09 10:53:09;;;;;;;4.40;4.00;;;12.90;99.90;;;;;;5059935;28;20497;-86
2022/11/09 10:55:36;;;;;;;5.80;5.10;;;13.00;99.90;;;;;;5062233;28;20436;-87
2022/11/09 10:58:19;;;;;;;6.83;4.70;;;13.00;99.90;;;;;;5060495;28;20524;-87
2022/11/09 11:01:03;;;;;;;7.30;4.93;;;13.10;99.90;;;;;;5059497;28;20472;-85
2022/11/09 11:03:34;;;;;;;5.53;4.83;;;13.10;99.90;;;;;;5060532;28;20468;-86
2022/11/09 11:06:03;;;;;;;5.47;4.30;;;13.20;99.90;;;;;;5059437;28;20886;-85
2022/11/09 11:08:37;;;;;;;6.00;5.20;;;13.30;99.90;;;;;;5059854;28;20449;-86
2022/11/09 11:11:14;;;;;;;4.33;3.93;;;13.30;99.90;;;;;;5075253;28;20454;-86
2022/11/09 11:13:41;;;;;;;4.40;4.00;;;13.30;99.90;;;;;;5079558;28;20497;-85
2022/11/09 11:16:25;;;;;;;4.60;4.20;;;13.20;99.90;;;;;;5079246;28;20468;-89
2022/11/09 11:18:54;;;;;;;7.50;3.77;;;;;;;;;;5078963;28;20464;-87
2022/11/09 11:21:22;;;;;;;4.33;3.93;;;13.40;99.90;;;;;;5078310;28;20521;-86
2022/11/09 11:24:11;;;;;;;7.50;4.40;;;13.20;99.90;;;;;;5065984;28;20476;-86
2022/11/09 11:26:46;;;;;;;4.23;3.83;;;13.80;99.90;;;;;;5059933;28;20462;-85
2022/11/09 11:29:28;;;;;;;5.13;4.60;;;13.60;99.90;;;;;;5059292;28;20400;-85
2022/11/09 11:31:55;;;;;;;4.50;4.10;;;13.60;99.90;;;;;;5060750;28;20489;-85
2022/11/09 11:34:25;;;;;;;6.70;4.50;;;;;;;;;;5067690;28;20412;-86
2022/11/09 11:37:05;;;;;;;4.43;4.03;;;13.60;99.90;;;;;;5076458;28;20412;-86
2022/11/09 11:39:42;;;;;;;4.60;4.20;;;14.10;99.90;;;;;;5072219;28;20472;-86
2022/11/09 11:42:31;;;;;;;4.70;4.30;;;14.00;99.90;;;;;;5060301;28;20522;-87
2022/11/09 11:45:14;;;;;;;3.77;3.47;;;14.10;99.90;;;;;;5060178;28;20393;-87
2022/11/09 11:47:50;;;;;;;5.77;4.03;;;13.70;99.90;;;;;;5061090;28;20442;-86
2022/11/09 11:50:34;;;;;;;5.27;4.33;;;13.90;99.90;;;;;;5058052;28;20446;-86
2022/11/09 11:53:13;;;;;;;4.60;4.20;;;14.00;99.90;;;;;;5061795;28;20466;-86
2022/11/09 11:55:52;;;;;;;5.10;4.50;;;14.00;99.90;;;;;;5064043;28;20437;-86
2022/11/09 11:58:33;;;;;;;4.93;4.50;;;13.90;99.90;;;;;;5061631;28;20412;-86
2022/11/09 12:01:11;;;;;;;3.70;3.40;;;13.80;99.90;;;;;;5061174;28;20447;-86
2022/11/09 12:03:51;;;;;;;5.13;3.77;;;13.80;99.90;;;;;;5061342;28;20909;-86
2022/11/09 12:06:37;;;;;;;7.93;3.77;;;13.80;99.90;;;;;;5077583;28;20426;-86
2022/11/09 12:09:21;;;;;;;3.67;3.37;;;13.80;99.90;;;;;;5078260;28;20432;-85
2022/11/09 12:12:14;;;;;;;4.30;3.60;;;13.80;99.90;;;;;;5078475;28;20512;-86
2022/11/09 12:14:51;;;;;;;4.20;3.67;;;13.80;99.90;;;;;;5077815;28;20397;-89
2022/11/09 12:17:26;;;;;;;4.23;3.53;;;13.80;99.90;;;;;;5077885;28;20397;-86
2022/11/09 12:20:06;;;;;;;5.13;4.67;;;13.80;99.90;;;;;;5078131;28;20492;-87
2022/11/09 12:22:42;;;;;;;6.30;4.40;;;13.80;99.90;;;;;;5072495;28;20453;-87
2022/11/09 12:28:27;;;;;;;4.20;3.80;;;13.80;99.90;;;;;;5064793;28;20430;-87
2022/11/09 12:31:20;;;;;;;5.20;3.83;;;13.90;99.90;;;;;;5065254;28;20488;-88
2022/11/09 12:33:59;;;;;;;3.33;3.00;;;14.00;99.90;;;;;;5063490;28;20462;-86
2022/11/09 12:36:37;;;;;;;4.63;4.20;;;14.00;99.90;;;;;;5064577;28;20444;-87
2022/11/09 12:39:11;;;;;;;5.73;5.23;;;14.20;99.90;;;;;;5069057;28;20502;-86
2022/11/09 12:41:40;;;;;;;6.17;5.00;;;14.10;99.90;;;;;;5071304;28;20465;-87
2022/11/09 12:44:14;;;;;;;3.83;3.33;;;14.10;99.90;;;;;;5061647;28;20536;-87
2022/11/09 12:46:54;;;;;;;4.50;3.50;;;14.10;99.90;;;;;;5061224;28;20425;-87
2022/11/09 12:49:31;;;;;;;9.57;8.73;;;14.20;99.90;;;;;;5065778;28;20854;-86
2022/11/09 12:51:58;;;;;;;5.60;4.13;;;14.00;99.90;;;;;;5067469;28;20473;-87
2022/11/09 12:54:27;;;;;;;3.70;3.40;;;14.10;99.90;;;;;;5066626;28;20477;-86
2022/11/09 12:56:57;;;;;;;7.80;4.03;;;14.10;99.90;;;;;;5066446;28;20525;-87
2022/11/09 12:59:46;;;;;;;3.80;3.50;;;14.10;99.90;;;;;;5064169;28;20477;-88
2022/11/09 13:02:28;;;;;;;4.93;3.30;;;13.90;99.90;;;;;;5067981;28;20426;-87
2022/11/09 13:05:00;;;;;;;3.40;3.17;;;14.10;47.70;;;;;;5062543;28;20438;-87
2022/11/09 13:07:31;;;;;;;4.10;3.80;;;14.10;13.80;;;;;;5063626;28;20404;-87
2022/11/09 13:10:02;;;;;;;6.10;3.90;;;14.20;55.10;;;;;;5064418;28;20465;-86
2022/11/09 13:12:41;;;;;;;4.57;4.17;;;14.20;51.40;;;;;;5078906;28;20465;-85
2022/11/09 13:15:28;;;;;;;4.90;3.13;;;14.20;1.00;;;;;;5080349;28;20414;-87
2022/11/09 13:17:59;;;;;;;3.83;3.53;;;14.20;1.00;;;;;;5073796;28;20445;-87
2022/11/09 13:20:43;;;;;;;5.03;4.37;;;14.20;1.00;;;;;;5064198;28;20545;-87
2022/11/09 13:23:32;;;;;;;5.10;3.37;;;14.10;8.90;;;;;;5063027;28;20521;-87
2022/11/09 13:26:00;;;;;;;5.10;3.40;;;14.20;1.00;;;;;;5062892;28;20950;-87
2022/11/09 13:29:20;;;;;;;4.90;4.40;;;14.20;1.00;;;;;;5062575;28;20908;-87
2022/11/09 13:32:24;;;;;;;7.30;3.90;;;14.30;1.00;;;;;;4980788;28;20483;-87
2022/11/09 13:34:53;;;;;;;7.90;3.40;;;14.30;1.00;;;;;;4980599;28;20467;-87
2022/11/09 13:37:48;;;;;;;5.47;4.27;;;14.20;1.00;;;;;;5050817;28;20448;-88
2022/11/09 13:40:48;;;;;;;5.30;3.80;;;14.30;1.00;;;;;;5068718;28;20477;-89
2022/11/09 13:43:25;;;;;;;4.80;3.17;;;14.10;99.90;;;;;;5066517;28;20513;-88
2022/11/09 13:45:55;;;;;;;12.53;4.40;;;14.10;20.40;;;;;;5078672;28;20425;-88